Time;durP1;ratioP1;P1;durP2;ratioP2;P2;SDS_P1;SDS_P2;PMS_P1;PMS_P2;Temp;Humidity;BMP_temperature;BMP_pressure;BME280_temperature;BME280_humidity;BME280_pressure;Samples;Min_cycle;Max_cycle;Signal;HPM_P1;HPM_P2
2021/04/25 00:01:42;;;;;;;6.23;1.10;;;8.40;71.90;;;;;;4991428;28;20037;-72
2021/04/25 00:04:15;;;;;;;4.27;1.33;;;8.40;72.60;;;;;;4973577;28;20041;-72
2021/04/25 00:06:44;;;;;;;4.77;0.53;;;8.40;73.50;;;;;;4991023;28;20044;-72
2021/04/25 00:09:10;;;;;;;6.07;1.47;;;8.30;73.30;;;;;;4991200;28;20041;-72
2021/04/25 00:11:36;;;;;;;1.40;0.40;;;8.30;73.10;;;;;;4990967;28;20030;-72
2021/04/25 00:14:03;;;;;;;6.20;0.77;;;8.20;74.30;;;;;;4990502;28;20029;-72
2021/04/25 00:16:29;;;;;;;4.83;1.00;;;8.20;74.10;;;;;;4990556;28;20414;-72
2021/04/25 00:19:00;;;;;;;1.30;0.60;;;8.10;74.80;;;;;;4991140;28;20034;-73
2021/04/25 00:21:28;;;;;;;8.77;2.17;;;8.10;74.90;;;;;;4990704;28;20026;-73
2021/04/25 00:23:58;;;;;;;2.30;0.70;;;8.00;76.10;;;;;;4973685;28;20105;-72
2021/04/25 00:26:23;;;;;;;5.07;0.77;;;8.00;75.80;;;;;;4990526;28;20125;-73
2021/04/25 00:28:51;;;;;;;2.30;0.50;;;7.90;77.20;;;;;;4989814;28;20026;-72
2021/04/25 00:31:18;;;;;;;2.23;0.40;;;7.90;77.40;;;;;;4989707;28;20044;-72
2021/04/25 00:33:46;;;;;;;1.93;0.60;;;7.80;77.80;;;;;;4990036;28;20363;-72
2021/04/25 00:36:14;;;;;;;4.23;0.87;;;7.80;78.00;;;;;;4990180;28;20026;-72
2021/04/25 00:38:40;;;;;;;1.30;0.60;;;7.70;78.60;;;;;;4981514;28;20045;-73
2021/04/25 00:41:06;;;;;;;2.47;0.33;;;7.70;78.90;;;;;;4990175;28;20034;-73
2021/04/25 00:43:35;;;;;;;3.83;0.60;;;7.70;79.30;;;;;;4989882;28;20616;-72
2021/04/25 00:46:02;;;;;;;5.87;1.33;;;7.60;79.10;;;;;;4990201;28;20030;-72
2021/04/25 00:48:32;;;;;;;2.50;0.60;;;7.60;80.00;;;;;;4977414;28;20022;-73
2021/04/25 00:50:58;;;;;;;4.37;0.60;;;7.60;80.50;;;;;;4990909;28;20127;-73
2021/04/25 00:53:24;;;;;;;2.60;0.40;;;7.50;82.10;;;;;;4990447;28;20455;-72
2021/04/25 00:55:51;;;;;;;1.53;0.50;;;7.60;81.30;;;;;;4990667;28;20126;-72
2021/04/25 00:58:20;;;;;;;6.47;0.50;;;7.60;81.60;;;;;;4990792;28;20068;-72
2021/04/25 01:00:46;;;;;;;3.60;1.40;;;7.50;81.80;;;;;;4981210;28;20049;-73
2021/04/25 01:03:12;;;;;;;0.67;0.40;;;7.50;82.90;;;;;;4990073;28;20030;-73
2021/04/25 01:05:40;;;;;;;2.40;0.80;;;7.40;83.10;;;;;;4988864;28;20052;-73
2021/04/25 01:08:08;;;;;;;2.67;0.40;;;7.40;84.20;;;;;;4991484;28;20046;-72
2021/04/25 01:10:33;;;;;;;6.10;2.23;;;7.30;84.70;;;;;;4972131;28;20030;-73
2021/04/25 01:13:02;;;;;;;1.27;0.40;;;7.30;85.10;;;;;;4991384;28;20030;-73
2021/04/25 01:15:28;;;;;;;6.47;1.67;;;7.20;86.40;;;;;;4990684;28;20030;-73
2021/04/25 01:17:54;;;;;;;6.80;2.50;;;7.20;87.90;;;;;;4972837;28;20601;-73
2021/04/25 01:20:23;;;;;;;1.53;0.60;;;7.20;87.90;;;;;;4980865;28;20042;-72
2021/04/25 01:22:51;;;;;;;3.17;0.70;;;7.20;87.60;;;;;;4976593;28;20034;-73
2021/04/25 01:25:20;;;;;;;5.03;1.50;;;7.10;88.10;;;;;;4989188;28;20462;-73
2021/04/25 01:27:46;;;;;;;1.60;0.70;;;7.10;89.60;;;;;;4989922;28;20022;-73
2021/04/25 01:30:16;;;;;;;4.50;0.70;;;7.00;89.30;;;;;;4991043;28;20051;-72
2021/04/25 01:32:42;;;;;;;4.17;1.07;;;7.10;90.10;;;;;;4976006;28;20038;-72
2021/04/25 01:35:16;;;;;;;1.80;0.60;;;7.00;90.10;;;;;;4990414;28;20107;-72
2021/04/25 01:37:44;;;;;;;6.17;0.60;;;6.90;90.50;;;;;;4989931;28;20224;-72
2021/04/25 01:40:13;;;;;;;4.50;1.73;;;6.80;91.00;;;;;;4973134;28;20067;-73
2021/04/25 01:42:40;;;;;;;7.50;1.80;;;6.80;91.30;;;;;;4972482;28;20470;-73
2021/04/25 01:45:15;;;;;;;1.40;0.83;;;6.80;91.90;;;;;;4989187;28;20314;-73
2021/04/25 01:47:48;;;;;;;1.07;0.73;;;6.80;91.70;;;;;;4980798;28;20099;-73
2021/04/25 01:50:18;;;;;;;2.42;0.65;;;6.80;91.40;;;;;;4989503;28;20053;-73
2021/04/25 01:52:44;;;;;;;4.33;1.93;;;6.70;91.40;;;;;;4989641;28;20062;-72
2021/04/25 01:55:13;;;;;;;2.90;1.47;;;6.70;92.40;;;;;;4989506;28;20124;-72
2021/04/25 01:57:39;;;;;;;4.23;0.60;;;6.70;92.00;;;;;;4989269;28;20026;-73
2021/04/25 02:00:16;;;;;;;3.10;1.30;;;6.70;92.10;;;;;;4980833;28;20289;-73
2021/04/25 02:02:44;;;;;;;4.30;1.00;;;6.70;92.20;;;;;;4988832;28;20034;-73
2021/04/25 02:05:10;;;;;;;6.30;1.20;;;6.70;92.60;;;;;;4989071;28;20291;-73
2021/04/25 02:07:38;;;;;;;3.20;1.60;;;6.70;92.60;;;;;;4989148;28;20372;-72
2021/04/25 02:10:08;;;;;;;8.77;1.93;;;6.60;93.30;;;;;;4971834;28;20030;-72
2021/04/25 02:12:36;;;;;;;7.87;2.30;;;6.60;93.00;;;;;;4989544;28;20030;-72
2021/04/25 02:15:04;;;;;;;2.87;1.50;;;6.60;93.30;;;;;;4989719;28;20061;-72
2021/04/25 02:17:32;;;;;;;12.87;3.53;;;6.50;93.30;;;;;;4990207;28;20276;-73
2021/04/25 02:19:58;;;;;;;6.80;1.50;;;6.40;94.60;;;;;;4990370;28;20296;-72
2021/04/25 02:22:24;;;;;;;7.93;1.90;;;6.40;94.30;;;;;;4988706;28;20026;-73
2021/04/25 02:24:50;;;;;;;5.30;2.00;;;6.40;94.30;;;;;;4989859;28;20045;-73
2021/04/25 02:27:15;;;;;;;3.77;1.60;;;6.40;94.60;;;;;;4972251;28;20030;-73
2021/04/25 02:29:41;;;;;;;4.07;1.27;;;6.30;94.40;;;;;;4988970;28;20113;-73
2021/04/25 02:32:07;;;;;;;9.00;1.53;;;6.30;94.50;;;;;;4989415;28;20085;-73
2021/04/25 02:34:32;;;;;;;2.80;1.47;;;6.30;94.40;;;;;;4989761;28;21072;-73
2021/04/25 02:36:58;;;;;;;6.07;1.20;;;6.30;94.50;;;;;;4988156;28;20026;-73
2021/04/25 02:39:24;;;;;;;6.77;2.13;;;6.30;94.80;;;;;;4989706;28;20073;-72
2021/04/25 02:41:50;;;;;;;5.00;1.37;;;6.20;95.20;;;;;;4989281;28;20030;-72
2021/04/25 02:44:16;;;;;;;4.87;1.00;;;6.20;95.20;;;;;;4989253;28;20288;-73
2021/04/25 02:46:41;;;;;;;8.53;1.53;;;6.20;95.70;;;;;;4989341;28;20092;-72
2021/04/25 02:49:07;;;;;;;4.73;1.17;;;6.20;95.30;;;;;;4973372;28;20110;-73
2021/04/25 02:51:35;;;;;;;3.63;1.53;;;6.20;95.40;;;;;;4980373;28;20048;-72
2021/04/25 02:54:01;;;;;;;2.93;1.10;;;6.20;95.60;;;;;;4992794;28;20401;-73
2021/04/25 02:56:29;;;;;;;11.43;2.70;;;6.10;95.80;;;;;;4974797;28;20368;-72
2021/04/25 02:58:57;;;;;;;10.57;1.97;;;6.20;96.30;;;;;;4991447;28;20062;-73
2021/04/25 03:01:23;;;;;;;7.67;2.40;;;6.20;96.50;;;;;;4974027;28;20291;-73
2021/04/25 03:03:49;;;;;;;4.40;1.27;;;6.20;96.20;;;;;;4991319;28;20324;-72
2021/04/25 03:06:14;;;;;;;4.93;1.90;;;6.20;96.00;;;;;;4979534;28;20432;-73
2021/04/25 03:08:40;;;;;;;5.60;1.60;;;6.20;96.60;;;;;;4990388;28;20034;-72
2021/04/25 03:11:08;;;;;;;2.80;1.00;;;6.20;96.10;;;;;;4992438;28;20030;-72
2021/04/25 03:13:34;;;;;;;2.83;1.37;;;6.10;96.00;;;;;;4992737;28;20034;-72
2021/04/25 03:16:00;;;;;;;3.80;1.20;;;6.10;96.10;;;;;;4977686;28;20291;-73
2021/04/25 03:18:26;;;;;;;1.60;0.67;;;6.00;96.50;;;;;;4974528;28;20038;-73
2021/04/25 03:20:51;;;;;;;6.93;2.07;;;6.00;96.60;;;;;;4983000;28;20026;-72
2021/04/25 03:23:17;;;;;;;2.73;1.13;;;6.00;97.40;;;;;;4991605;28;20088;-73
2021/04/25 03:25:43;;;;;;;2.93;0.83;;;5.90;96.90;;;;;;4991920;28;20029;-72
2021/04/25 03:28:11;;;;;;;1.93;0.77;;;5.90;97.20;;;;;;4991951;28;20081;-73
2021/04/25 03:30:37;;;;;;;6.27;1.30;;;5.90;97.50;;;;;;4992328;28;20316;-73
2021/04/25 03:33:03;;;;;;;5.03;1.17;;;5.90;97.50;;;;;;4982897;28;20721;-73
2021/04/25 03:35:29;;;;;;;3.20;1.00;;;5.90;97.40;;;;;;4992413;28;20049;-74
2021/04/25 03:37:55;;;;;;;3.33;1.17;;;5.90;97.70;;;;;;4991852;28;20281;-72
2021/04/25 03:40:21;;;;;;;6.37;1.40;;;5.90;97.90;;;;;;4991721;28;20292;-72
2021/04/25 03:42:48;;;;;;;3.13;0.70;;;5.90;97.90;;;;;;4990861;28;20045;-72
2021/04/25 03:45:15;;;;;;;2.83;1.17;;;5.80;98.20;;;;;;4991341;28;20034;-73
2021/04/25 03:47:45;;;;;;;2.63;0.97;;;5.80;98.50;;;;;;4974335;28;20343;-72
2021/04/25 03:50:16;;;;;;;6.13;1.53;;;5.80;98.80;;;;;;4976137;28;20283;-72
2021/04/25 03:52:43;;;;;;;4.97;1.67;;;5.80;98.80;;;;;;4991202;28;20273;-73
2021/04/25 03:55:09;;;;;;;2.93;0.90;;;5.70;98.70;;;;;;4991372;28;20299;-72
2021/04/25 03:57:37;;;;;;;2.67;1.10;;;5.70;98.90;;;;;;4991836;28;20292;-72
2021/04/25 04:00:08;;;;;;;4.30;0.80;;;5.60;99.00;;;;;;4992242;28;20351;-72
2021/04/25 04:02:37;;;;;;;3.03;1.00;;;5.60;99.20;;;;;;4989414;28;20284;-72
2021/04/25 04:05:06;;;;;;;5.57;0.70;;;5.60;99.60;;;;;;4991793;28;20303;-72
2021/04/25 04:07:34;;;;;;;2.63;0.83;;;5.60;99.50;;;;;;4974473;28;20340;-74
2021/04/25 04:10:00;;;;;;;3.90;1.70;;;5.60;99.60;;;;;;4982263;28;20741;-73
2021/04/25 04:12:26;;;;;;;2.87;1.33;;;5.60;99.90;;;;;;4991560;28;20287;-73
2021/04/25 04:14:52;;;;;;;3.77;1.10;;;5.60;99.90;;;;;;4991089;28;20031;-72
2021/04/25 04:17:18;;;;;;;1.77;0.97;;;5.60;99.80;;;;;;4990887;28;20049;-73
2021/04/25 04:19:44;;;;;;;3.17;1.30;;;5.50;99.90;;;;;;4991756;28;20291;-74
2021/04/25 04:22:10;;;;;;;4.00;0.97;;;6.40;99.90;;;;;;4991498;28;20289;-73
2021/04/25 04:24:40;;;;;;;2.87;1.27;;;5.40;99.90;;;;;;4976900;28;20041;-73
2021/04/25 04:27:06;;;;;;;4.40;1.00;;;5.40;99.90;;;;;;4991596;28;20068;-73
2021/04/25 04:29:34;;;;;;;3.67;1.37;;;5.50;99.90;;;;;;4972646;28;20407;-72
2021/04/25 04:32:00;;;;;;;4.83;1.10;;;5.50;99.90;;;;;;4990298;28;20049;-75
2021/04/25 04:34:25;;;;;;;2.63;1.50;;;5.50;99.90;;;;;;4990364;28;20750;-74
2021/04/25 04:36:54;;;;;;;5.43;0.70;;;5.50;99.90;;;;;;4990653;28;21833;-73
2021/04/25 04:39:20;;;;;;;3.90;1.47;;;5.50;99.90;;;;;;4991157;28;20438;-73
2021/04/25 04:41:46;;;;;;;3.17;1.10;;;5.50;99.90;;;;;;4975219;28;21036;-73
2021/04/25 04:44:11;;;;;;;2.87;0.87;;;5.50;99.90;;;;;;4990620;28;20503;-73
2021/04/25 04:46:37;;;;;;;11.53;1.40;;;5.50;99.90;;;;;;4992393;28;20033;-73
2021/04/25 04:49:07;;;;;;;3.70;1.20;;;5.40;99.90;;;;;;4984224;28;20117;-72
2021/04/25 04:51:35;;;;;;;3.13;1.03;;;5.40;99.90;;;;;;4992529;28;20026;-72
2021/04/25 04:54:03;;;;;;;4.13;1.10;;;5.40;99.90;;;;;;4992339;28;20268;-73
2021/04/25 04:56:29;;;;;;;2.70;1.53;;;5.40;99.90;;;;;;4976168;28;20900;-72
2021/04/25 04:58:54;;;;;;;6.97;2.10;;;5.40;99.90;;;;;;4976193;28;20884;-72
2021/04/25 05:01:22;;;;;;;3.57;0.80;;;5.40;99.90;;;;;;4992153;28;20034;-72
2021/04/25 05:03:52;;;;;;;3.47;1.20;;;5.40;99.90;;;;;;4993473;28;20041;-72
2021/04/25 05:06:18;;;;;;;4.47;1.23;;;5.40;99.90;;;;;;4992467;28;20285;-73
2021/04/25 05:08:44;;;;;;;7.63;1.87;;;5.50;99.90;;;;;;4991720;28;20346;-73
2021/04/25 05:11:13;;;;;;;7.60;2.00;;;5.60;99.90;;;;;;4990203;28;20084;-73
2021/04/25 05:13:39;;;;;;;6.47;1.50;;;5.60;99.90;;;;;;4979633;28;20035;-73
2021/04/25 05:16:04;;;;;;;5.37;1.70;;;5.60;99.90;;;;;;4992743;28;20272;-73
2021/04/25 05:18:30;;;;;;;3.50;1.30;;;5.60;99.90;;;;;;4990276;28;20048;-73
2021/04/25 05:20:58;;;;;;;9.03;3.07;;;5.70;99.90;;;;;;4989126;28;21601;-73
2021/04/25 05:23:24;;;;;;;4.40;1.40;;;5.60;99.90;;;;;;4989504;28;20030;-73
2021/04/25 05:25:49;;;;;;;3.53;1.30;;;5.60;99.90;;;;;;4989770;28;20296;-72
2021/04/25 05:28:15;;;;;;;5.57;1.50;;;5.60;99.90;;;;;;4990414;28;20041;-73
2021/04/25 05:30:41;;;;;;;3.70;1.50;;;5.70;99.90;;;;;;4990754;28;20856;-73
2021/04/25 05:33:06;;;;;;;3.53;1.33;;;5.70;99.90;;;;;;4991601;28;20388;-73
2021/04/25 05:35:34;;;;;;;5.03;1.20;;;5.70;99.90;;;;;;4977660;28;20104;-73
2021/04/25 05:38:02;;;;;;;9.23;1.53;;;5.60;99.90;;;;;;4991370;28;20034;-73
2021/04/25 05:40:28;;;;;;;7.80;2.40;;;5.70;99.90;;;;;;4979926;28;20311;-72
2021/04/25 05:42:53;;;;;;;6.00;0.90;;;5.60;99.90;;;;;;4991353;28;20277;-72
2021/04/25 05:45:22;;;;;;;5.43;1.50;;;5.70;99.90;;;;;;4988775;28;20336;-73
2021/04/25 05:47:56;;;;;;;3.97;1.23;;;5.80;99.90;;;;;;4989297;28;20030;-73
2021/04/25 05:50:27;;;;;;;8.17;1.57;;;5.90;99.90;;;;;;4989134;28;20368;-72
2021/04/25 05:52:53;;;;;;;5.60;1.30;;;5.90;99.90;;;;;;4989912;28;20272;-72
2021/04/25 05:55:20;;;;;;;3.40;1.17;;;5.90;99.90;;;;;;4989161;28;20331;-72
2021/04/25 05:57:45;;;;;;;3.70;1.23;;;5.90;99.90;;;;;;4974769;28;20282;-72
2021/04/25 06:00:20;;;;;;;4.90;1.27;;;5.90;99.90;;;;;;4976210;28;20285;-73
2021/04/25 06:02:45;;;;;;;4.80;1.60;;;5.90;99.90;;;;;;4990176;28;20027;-73
2021/04/25 06:05:12;;;;;;;5.90;1.07;;;5.90;99.90;;;;;;4989613;28;20285;-72
2021/04/25 06:07:38;;;;;;;5.73;1.53;;;5.90;99.90;;;;;;4988145;28;20811;-72
2021/04/25 06:10:05;;;;;;;8.53;1.27;;;6.00;99.90;;;;;;4988651;28;20281;-73
2021/04/25 06:12:32;;;;;;;7.23;1.47;;;6.10;99.80;;;;;;4990684;28;20313;-74
2021/04/25 06:15:00;;;;;;;4.50;1.27;;;6.10;99.30;;;;;;4990800;28;20280;-73
2021/04/25 06:17:26;;;;;;;3.07;1.00;;;6.20;98.50;;;;;;4989239;28;20312;-73
2021/04/25 06:19:54;;;;;;;5.53;2.07;;;6.30;97.90;;;;;;4989505;28;20359;-73
2021/04/25 06:22:19;;;;;;;3.97;0.97;;;6.30;98.10;;;;;;4987701;28;20034;-72
2021/04/25 06:24:47;;;;;;;6.73;1.70;;;6.40;98.00;;;;;;4990094;28;20123;-73
2021/04/25 06:27:15;;;;;;;4.37;1.57;;;6.40;97.50;;;;;;4992536;28;20103;-73
2021/04/25 06:29:41;;;;;;;9.57;1.97;;;6.40;97.50;;;;;;4993386;28;20678;-73
2021/04/25 06:32:06;;;;;;;3.87;1.40;;;6.50;97.60;;;;;;4992907;28;20208;-72
2021/04/25 06:34:34;;;;;;;6.67;1.57;;;6.70;96.80;;;;;;4992224;28;20060;-72
2021/04/25 06:37:00;;;;;;;3.13;1.20;;;6.90;96.10;;;;;;4991877;28;20030;-72
2021/04/25 06:39:25;;;;;;;5.57;2.00;;;7.10;95.50;;;;;;4991453;28;20053;-72
2021/04/25 06:41:54;;;;;;;2.67;1.07;;;7.20;94.80;;;;;;4990401;28;20060;-73
2021/04/25 06:44:24;;;;;;;4.70;1.73;;;7.30;92.30;;;;;;4991775;28;20056;-73
2021/04/25 06:46:54;;;;;;;2.60;1.80;;;7.30;92.30;;;;;;4991922;28;20650;-74
2021/04/25 06:49:21;;;;;;;3.50;1.70;;;7.40;91.60;;;;;;4991842;28;20035;-73
2021/04/25 06:51:47;;;;;;;3.40;1.50;;;7.60;91.60;;;;;;4990978;28;20025;-74
2021/04/25 06:54:12;;;;;;;3.03;1.10;;;7.70;88.90;;;;;;4991941;28;20113;-74
2021/04/25 06:56:38;;;;;;;5.27;1.93;;;7.70;87.50;;;;;;4991865;28;20038;-75
2021/04/25 06:59:05;;;;;;;3.03;1.53;;;7.70;86.10;;;;;;4975781;28;20026;-75
2021/04/25 07:01:36;;;;;;;6.10;1.57;;;7.70;84.00;;;;;;4991469;28;20122;-75
2021/04/25 07:04:02;;;;;;;4.40;1.70;;;7.70;82.90;;;;;;4992588;28;20033;-75
2021/04/25 07:06:27;;;;;;;7.03;1.90;;;7.60;83.60;;;;;;4992970;28;20058;-75
2021/04/25 07:08:53;;;;;;;7.53;1.93;;;;;;;;;;4994004;28;22120;-75
2021/04/25 07:11:19;;;;;;;2.67;1.57;;;7.50;82.70;;;;;;4982840;28;20054;-74
2021/04/25 07:13:47;;;;;;;5.40;1.57;;;7.60;82.60;;;;;;4991903;28;20072;-74
2021/04/25 07:16:15;;;;;;;3.67;1.50;;;7.70;82.70;;;;;;4990713;28;20082;-75
2021/04/25 07:18:41;;;;;;;2.70;1.70;;;7.60;81.50;;;;;;4991297;28;20030;-74
2021/04/25 07:21:06;;;;;;;3.90;1.73;;;7.60;81.00;;;;;;4991398;28;20045;-74
2021/04/25 07:23:32;;;;;;;4.33;2.03;;;7.50;81.10;;;;;;4992555;28;20716;-74
2021/04/25 07:26:00;;;;;;;3.47;1.50;;;7.40;83.90;;;;;;4990930;28;20030;-74
2021/04/25 07:28:26;;;;;;;3.73;1.77;;;7.40;84.00;;;;;;4991500;28;20456;-75
2021/04/25 07:30:52;;;;;;;5.23;1.93;;;7.50;83.70;;;;;;4991452;28;20085;-74
2021/04/25 07:33:22;;;;;;;4.77;1.97;;;7.70;83.70;;;;;;4977843;28;20030;-77
2021/04/25 07:35:48;;;;;;;6.83;1.50;;;7.90;83.40;;;;;;4991436;28;20121;-75
2021/04/25 07:38:17;;;;;;;3.53;2.07;;;8.00;82.20;;;;;;4990451;28;20046;-75
2021/04/25 07:40:45;;;;;;;3.27;1.73;;;8.30;78.50;;;;;;4991417;28;20034;-77
2021/04/25 07:43:11;;;;;;;4.50;1.50;;;8.60;77.40;;;;;;4991449;28;20176;-75
2021/04/25 07:45:39;;;;;;;4.43;1.77;;;8.80;76.00;;;;;;4991454;28;20038;-75
2021/04/25 07:48:07;;;;;;;4.33;1.53;;;8.80;75.40;;;;;;4974100;28;20057;-75
2021/04/25 07:50:35;;;;;;;5.67;1.67;;;8.60;74.30;;;;;;4991428;28;20026;-74
2021/04/25 07:53:01;;;;;;;4.30;2.00;;;8.50;77.20;;;;;;4991708;28;20940;-75
2021/04/25 07:55:28;;;;;;;2.70;1.53;;;8.60;76.20;;;;;;4982157;28;20041;-75
2021/04/25 07:57:56;;;;;;;3.17;1.87;;;8.70;75.10;;;;;;4990958;28;20058;-74
2021/04/25 08:00:22;;;;;;;3.33;1.70;;;8.70;74.00;;;;;;4990474;28;21901;-75
2021/04/25 08:02:48;;;;;;;8.77;2.10;;;9.00;73.70;;;;;;4991450;28;20031;-74
2021/04/25 08:05:14;;;;;;;4.13;1.43;;;8.90;72.30;;;;;;4975301;28;20096;-74
2021/04/25 08:07:39;;;;;;;6.70;2.00;;;8.80;72.40;;;;;;4993017;28;20100;-76
2021/04/25 08:10:09;;;;;;;4.77;1.80;;;9.00;69.90;;;;;;4991355;28;20057;-64
2021/04/25 08:12:35;;;;;;;3.03;2.10;;;8.90;70.80;;;;;;4991205;28;20080;-63
2021/04/25 08:15:04;;;;;;;4.00;2.37;;;8.80;70.90;;;;;;4972973;28;20700;-63
2021/04/25 08:17:29;;;;;;;4.37;2.00;;;8.70;70.90;;;;;;4991202;28;20044;-66
2021/04/25 08:19:55;;;;;;;4.30;2.07;;;8.40;72.90;;;;;;4982423;28;20038;-63
2021/04/25 08:22:23;;;;;;;6.50;2.27;;;8.10;74.60;;;;;;4990764;28;20065;-63
2021/04/25 08:24:51;;;;;;;6.13;2.27;;;8.00;76.80;;;;;;4991537;28;20034;-63
2021/04/25 08:27:16;;;;;;;5.27;2.03;;;7.90;76.60;;;;;;4990602;28;21907;-63
2021/04/25 08:29:42;;;;;;;6.17;1.77;;;8.00;76.50;;;;;;4989905;28;20034;-63
2021/04/25 08:32:08;;;;;;;7.13;2.97;;;7.90;76.50;;;;;;4989320;28;21814;-63
2021/04/25 08:34:34;;;;;;;6.33;2.00;;;7.80;77.60;;;;;;4988773;28;20411;-62
2021/04/25 08:37:00;;;;;;;5.00;2.00;;;8.00;78.40;;;;;;4989813;28;20046;-63
2021/04/25 08:39:26;;;;;;;4.20;2.13;;;8.20;75.90;;;;;;4976562;28;20095;-62
2021/04/25 08:41:55;;;;;;;6.13;2.43;;;8.30;74.90;;;;;;4972771;28;20089;-62
2021/04/25 08:44:21;;;;;;;4.93;2.33;;;8.40;75.90;;;;;;4989592;28;20662;-62
2021/04/25 08:46:49;;;;;;;3.63;1.97;;;8.30;74.00;;;;;;4976537;28;20470;-63
2021/04/25 08:49:17;;;;;;;7.40;2.73;;;8.30;75.30;;;;;;4989509;28;20030;-61
2021/04/25 08:51:44;;;;;;;5.90;2.10;;;8.50;74.30;;;;;;4972965;28;20038;-62
2021/04/25 08:54:13;;;;;;;8.37;2.00;;;8.50;73.40;;;;;;4990076;28;20038;-62
2021/04/25 08:56:39;;;;;;;4.13;2.20;;;8.50;72.50;;;;;;4989481;28;20033;-61
2021/04/25 08:59:06;;;;;;;4.90;2.20;;;8.50;72.30;;;;;;4988226;28;20033;-62
2021/04/25 09:01:34;;;;;;;4.73;2.50;;;8.50;72.60;;;;;;4989186;28;20030;-63
2021/04/25 09:04:05;;;;;;;4.97;2.47;;;8.40;72.50;;;;;;4989694;28;20126;-61
2021/04/25 09:06:30;;;;;;;5.50;2.53;;;8.30;74.20;;;;;;4989561;28;20050;-62
2021/04/25 09:09:01;;;;;;;6.00;2.33;;;8.40;72.70;;;;;;4971790;28;20042;-62
2021/04/25 09:11:31;;;;;;;5.27;2.07;;;8.40;73.90;;;;;;4989179;28;20069;-62
2021/04/25 09:14:17;;;;;;;7.40;3.20;;;8.60;74.40;;;;;;4989477;28;20064;-62
2021/04/25 09:17:01;;;;;;;5.33;2.70;;;8.60;70.80;;;;;;4971772;28;20463;-62
2021/04/25 09:19:54;;;;;;;8.80;2.83;;;8.60;71.70;;;;;;4971867;28;20117;-60
2021/04/25 09:22:22;;;;;;;9.25;2.70;;;8.50;72.30;;;;;;4988375;28;20042;-61
2021/04/25 09:24:48;;;;;;;4.80;2.20;;;8.50;70.70;;;;;;4975175;28;20030;-59
2021/04/25 09:27:27;;;;;;;4.00;2.30;;;8.70;69.50;;;;;;4990502;28;20022;-59
2021/04/25 09:29:57;;;;;;;5.63;2.60;;;8.70;70.20;;;;;;4989617;28;20046;-59
2021/04/25 09:32:26;;;;;;;6.87;3.47;;;8.70;69.00;;;;;;4971114;28;20033;-60
2021/04/25 09:35:09;;;;;;;6.27;2.90;;;8.80;68.70;;;;;;4975315;28;20021;-59
2021/04/25 09:37:37;;;;;;;8.13;2.73;;;8.90;68.10;;;;;;4987341;28;20133;-59
2021/04/25 09:40:09;;;;;;;5.33;2.50;;;8.80;68.50;;;;;;4989753;28;20125;-59
2021/04/25 09:43:13;;;;;;;8.43;3.07;;;8.80;70.80;;;;;;4988488;28;20704;-59
2021/04/25 09:45:46;;;;;;;7.27;3.37;;;8.90;68.70;;;;;;4970520;28;20069;-59
2021/04/25 09:48:26;;;;;;;8.05;3.38;;;8.90;67.80;;;;;;4989500;28;20033;-59
2021/04/25 09:51:10;;;;;;;7.27;2.80;;;9.00;69.00;;;;;;4988954;28;20033;-59
2021/04/25 09:53:56;;;;;;;7.17;2.90;;;9.20;69.60;;;;;;4989179;28;20030;-60
2021/04/25 09:56:33;;;;;;;5.53;2.67;;;9.20;66.50;;;;;;4988733;28;20478;-61
2021/04/25 09:59:01;;;;;;;11.10;3.73;;;9.30;65.50;;;;;;4971510;28;20037;-60
2021/04/25 10:01:43;;;;;;;9.53;3.57;;;9.20;65.50;;;;;;4979765;28;20514;-59
2021/04/25 10:04:29;;;;;;;9.55;3.08;;;9.00;66.20;;;;;;4976043;28;20034;-59
2021/04/25 10:06:57;;;;;;;5.20;2.33;;;9.10;66.30;;;;;;4992789;28;20038;-60
2021/04/25 10:09:26;;;;;;;9.20;3.13;;;9.30;67.70;;;;;;4993332;28;20396;-59
2021/04/25 10:11:53;;;;;;;4.73;2.23;;;9.40;64.20;;;;;;4993760;28;20035;-59
2021/04/25 10:14:20;;;;;;;5.83;2.20;;;9.40;64.00;;;;;;4975709;28;20114;-59
2021/04/25 10:16:51;;;;;;;8.57;2.67;;;9.40;64.60;;;;;;4979577;28;20702;-59
2021/04/25 10:19:17;;;;;;;9.60;2.80;;;9.40;65.50;;;;;;4993099;28;20030;-60
2021/04/25 10:21:47;;;;;;;5.53;2.00;;;9.50;66.20;;;;;;4975855;28;20034;-60
2021/04/25 10:24:21;;;;;;;4.87;1.97;;;9.70;64.50;;;;;;4993479;28;20101;-61
2021/04/25 10:27:11;;;;;;;7.23;2.27;;;9.70;64.70;;;;;;4974886;28;20118;-59
2021/04/25 10:29:51;;;;;;;5.47;1.70;;;9.90;64.40;;;;;;4991693;28;20171;-61
2021/04/25 10:32:19;;;;;;;6.33;1.50;;;9.90;63.80;;;;;;4993316;28;20034;-60
2021/04/25 10:34:49;;;;;;;5.13;2.00;;;9.80;65.00;;;;;;4992785;28;20045;-61
2021/04/25 10:37:14;;;;;;;5.97;2.17;;;9.90;64.40;;;;;;4993032;28;20022;-60
2021/04/25 10:39:56;;;;;;;5.03;1.70;;;10.00;64.20;;;;;;4974421;28;20096;-61
2021/04/25 10:42:29;;;;;;;3.43;1.77;;;10.10;63.10;;;;;;4975071;28;20034;-61
2021/04/25 10:45:07;;;;;;;5.40;1.80;;;10.20;63.70;;;;;;4993339;28;20088;-60
2021/04/25 10:47:34;;;;;;;3.97;1.53;;;10.30;62.20;;;;;;4992881;28;20037;-60
2021/04/25 10:50:21;;;;;;;7.27;2.10;;;10.20;63.10;;;;;;4992256;28;20459;-61
2021/04/25 10:52:51;;;;;;;2.20;1.20;;;10.30;62.70;;;;;;4972307;28;20042;-60
2021/04/25 10:55:20;;;;;;;5.10;1.43;;;10.40;61.70;;;;;;4993514;28;20030;-61
2021/04/25 11:00:48;;;;;;;3.17;1.40;;;10.50;62.50;;;;;;4992382;28;20045;-60
2021/04/25 11:03:15;;;;;;;2.97;1.27;;;10.70;61.50;;;;;;4992666;28;20284;-60
2021/04/25 11:05:43;;;;;;;7.57;1.70;;;10.80;61.90;;;;;;4992703;28;20053;-61
2021/04/25 11:08:15;;;;;;;4.40;1.60;;;11.00;61.70;;;;;;4978391;28;20022;-60
2021/04/25 11:11:09;;;;;;;2.60;1.38;;;11.20;60.20;;;;;;4992151;28;20035;-59
2021/04/25 11:13:44;;;;;;;4.57;1.47;;;11.20;59.40;;;;;;4994448;28;20035;-59
2021/04/25 11:16:24;;;;;;;4.17;1.57;;;11.20;59.10;;;;;;4994144;28;20109;-61
2021/04/25 11:19:12;;;;;;;6.77;1.83;;;11.20;59.30;;;;;;4995520;28;20051;-59
2021/04/25 11:21:47;;;;;;;7.77;1.77;;;11.10;59.70;;;;;;4993714;28;20045;-59
2021/04/25 11:24:12;;;;;;;4.40;2.50;;;11.20;60.60;;;;;;4991727;28;20125;-59
2021/04/25 11:26:40;;;;;;;4.20;1.63;;;11.20;59.40;;;;;;4992977;28;20038;-59
2021/04/25 11:29:10;;;;;;;6.50;2.67;;;11.20;59.60;;;;;;4992255;28;20149;-58
2021/04/25 11:31:54;;;;;;;3.60;1.80;;;11.20;60.00;;;;;;4992473;28;20035;-59
2021/04/25 11:34:30;;;;;;;6.57;3.23;;;11.10;59.50;;;;;;4991873;28;20108;-59
2021/04/25 11:37:22;;;;;;;3.53;1.60;;;11.10;62.30;;;;;;4974389;28;20072;-59
2021/04/25 11:39:50;;;;;;;3.60;1.90;;;11.40;61.00;;;;;;4991832;28;20104;-58
2021/04/25 11:42:36;;;;;;;2.87;1.50;;;11.60;58.20;;;;;;4991544;28;20037;-59
2021/04/25 11:45:12;;;;;;;4.53;2.17;;;11.80;58.60;;;;;;4992021;28;20159;-58
2021/04/25 11:48:06;;;;;;;5.80;1.67;;;11.90;56.70;;;;;;4992085;28;20030;-58
2021/04/25 11:50:35;;;;;;;5.60;1.93;;;11.90;56.90;;;;;;4988049;28;20511;-60
2021/04/25 11:53:05;;;;;;;5.43;2.40;;;12.10;57.50;;;;;;4992020;28;20497;-60
2021/04/25 11:55:32;;;;;;;4.83;1.80;;;12.60;56.60;;;;;;4990833;28;20450;-59
2021/04/25 11:57:58;;;;;;;10.83;3.20;;;13.00;54.90;;;;;;4974426;28;20038;-59
2021/04/25 12:00:35;;;;;;;2.73;1.50;;;13.30;53.10;;;;;;4991101;28;20034;-60
2021/04/25 12:03:04;;;;;;;5.13;1.80;;;13.70;52.20;;;;;;4992333;28;20026;-59
2021/04/25 12:05:32;;;;;;;4.70;1.80;;;14.30;52.00;;;;;;4990571;28;22006;-59
2021/04/25 12:08:04;;;;;;;2.50;1.53;;;15.10;50.80;;;;;;4990975;28;20049;-59
2021/04/25 12:10:42;;;;;;;4.10;1.80;;;15.50;48.50;;;;;;4991589;28;20030;-59
2021/04/25 12:13:17;;;;;;;8.57;2.13;;;15.50;48.60;;;;;;4990277;28;20451;-60
2021/04/25 12:16:17;;;;;;;3.27;1.80;;;15.40;48.50;;;;;;4991002;28;20747;-59
2021/04/25 12:18:43;;;;;;;5.10;1.87;;;15.60;49.70;;;;;;4978387;28;20458;-59
2021/04/25 12:21:23;;;;;;;4.07;2.03;;;15.90;47.30;;;;;;4991168;28;20030;-59
2021/04/25 12:23:51;;;;;;;6.37;2.10;;;16.00;47.10;;;;;;4989370;28;20038;-60
2021/04/25 12:26:19;;;;;;;4.93;2.23;;;;;;;;;;4989440;28;20042;-58
2021/04/25 12:28:50;;;;;;;3.70;1.37;;;17.60;43.20;;;;;;4990998;28;20053;-60
2021/04/25 12:31:18;;;;;;;2.63;1.60;;;18.00;43.80;;;;;;4990910;28;20049;-60
2021/04/25 12:33:47;;;;;;;4.07;1.90;;;19.30;41.50;;;;;;4974279;28;20121;-60
2021/04/25 12:36:17;;;;;;;2.22;1.23;;;20.10;39.80;;;;;;4991181;28;20026;-59
2021/04/25 12:38:53;;;;;;;3.00;1.88;;;20.10;39.70;;;;;;4973759;28;20070;-59
2021/04/25 12:41:23;;;;;;;4.18;2.33;;;20.90;38.90;;;;;;4990642;28;20034;-60
2021/04/25 12:43:49;;;;;;;3.20;2.10;;;21.30;37.90;;;;;;4972660;28;20041;-60
2021/04/25 12:46:19;;;;;;;5.35;2.72;;;21.80;36.50;;;;;;4990377;28;20073;-59
2021/04/25 12:48:53;;;;;;;3.53;2.40;;;22.10;36.50;;;;;;4990163;28;20057;-60
2021/04/25 12:51:33;;;;;;;4.13;2.10;;;22.20;36.10;;;;;;4990125;28;20100;-60
2021/04/25 12:53:59;;;;;;;3.88;2.00;;;22.10;35.50;;;;;;4971996;28;20029;-60
2021/04/25 12:56:30;;;;;;;2.85;1.60;;;22.00;35.90;;;;;;4989543;28;20065;-61
2021/04/25 12:59:04;;;;;;;4.87;2.10;;;22.50;35.60;;;;;;4972646;28;20037;-60
2021/04/25 13:01:31;;;;;;;4.50;2.08;;;23.10;34.50;;;;;;4989943;28;20041;-60
2021/04/25 13:03:59;;;;;;;5.47;2.30;;;22.70;34.30;;;;;;4973337;28;20506;-60
2021/04/25 13:06:30;;;;;;;7.88;1.88;;;23.20;34.20;;;;;;4972060;28;20084;-60
2021/04/25 13:09:11;;;;;;;5.07;3.13;;;22.60;34.00;;;;;;4972114;28;20117;-60